sensor_id;sensor_type;location;lat;lon;timestamp;P1;durP1;ratioP1;P2;durP2;ratioP2
52316;SDS011;38725;41.994;21.458;2022-09-27T00:02:17;33.13;;;22.60;;
52316;SDS011;38725;41.994;21.458;2022-09-27T00:04:43;35.97;;;22.10;;
52316;SDS011;38725;41.994;21.458;2022-09-27T00:07:09;33.28;;;22.55;;
52316;SDS011;38725;41.994;21.458;2022-09-27T00:09:35;36.45;;;21.55;;
52316;SDS011;38725;41.994;21.458;2022-09-27T00:12:02;37.78;;;23.77;;
52316;SDS011;38725;41.994;21.458;2022-09-27T00:14:28;36.22;;;22.88;;
52316;SDS011;38725;41.994;21.458;2022-09-27T00:16:54;36.10;;;22.17;;
52316;SDS011;38725;41.994;21.458;2022-09-27T00:19:21;37.85;;;24.10;;
52316;SDS011;38725;41.994;21.458;2022-09-27T00:21:48;38.72;;;22.85;;
52316;SDS011;38725;41.994;21.458;2022-09-27T00:24:16;38.53;;;23.63;;
52316;SDS011;38725;41.994;21.458;2022-09-27T00:26:42;38.40;;;24.23;;
52316;SDS011;38725;41.994;21.458;2022-09-27T00:29:09;39.80;;;23.15;;
52316;SDS011;38725;41.994;21.458;2022-09-27T00:31:36;36.20;;;22.08;;
52316;SDS011;38725;41.994;21.458;2022-09-27T00:34:03;34.35;;;21.48;;
52316;SDS011;38725;41.994;21.458;2022-09-27T00:36:29;34.50;;;20.80;;
52316;SDS011;38725;41.994;21.458;2022-09-27T00:38:56;33.33;;;22.33;;
52316;SDS011;38725;41.994;21.458;2022-09-27T00:41:28;33.50;;;20.85;;
52316;SDS011;38725;41.994;21.458;2022-09-27T00:43:58;34.35;;;22.52;;
52316;SDS011;38725;41.994;21.458;2022-09-27T00:49:39;34.38;;;22.83;;
52316;SDS011;38725;41.994;21.458;2022-09-27T00:51:40;35.78;;;22.65;;
52316;SDS011;38725;41.994;21.458;2022-09-27T00:54:08;33.78;;;20.45;;
52316;SDS011;38725;41.994;21.458;2022-09-27T00:56:36;32.60;;;20.45;;
52316;SDS011;38725;41.994;21.458;2022-09-27T00:59:05;36.88;;;21.77;;
52316;SDS011;38725;41.994;21.458;2022-09-27T01:01:31;31.02;;;20.65;;
52316;SDS011;38725;41.994;21.458;2022-09-27T01:03:59;34.97;;;20.08;;
52316;SDS011;38725;41.994;21.458;2022-09-27T01:06:27;37.78;;;23.30;;
52316;SDS011;38725;41.994;21.458;2022-09-27T01:08:53;32.40;;;20.85;;
52316;SDS011;38725;41.994;21.458;2022-09-27T01:13:56;36.42;;;22.10;;
52316;SDS011;38725;41.994;21.458;2022-09-27T01:18:56;33.15;;;21.40;;
52316;SDS011;38725;41.994;21.458;2022-09-27T01:29:15;30.77;;;19.45;;
52316;SDS011;38725;41.994;21.458;2022-09-27T01:34:43;34.30;;;20.60;;
52316;SDS011;38725;41.994;21.458;2022-09-27T01:39:56;32.35;;;19.88;;
52316;SDS011;38725;41.994;21.458;2022-09-27T01:47:20;28.77;;;20.58;;
52316;SDS011;38725;41.994;21.458;2022-09-27T01:50:07;32.03;;;19.90;;
52316;SDS011;38725;41.994;21.458;2022-09-27T01:52:42;38.67;;;21.77;;
52316;SDS011;38725;41.994;21.458;2022-09-27T01:55:11;33.20;;;20.05;;
52316;SDS011;38725;41.994;21.458;2022-09-27T01:57:39;36.15;;;22.25;;
52316;SDS011;38725;41.994;21.458;2022-09-27T02:00:09;42.78;;;23.98;;
52316;SDS011;38725;41.994;21.458;2022-09-27T02:02:37;32.85;;;20.63;;
52316;SDS011;38725;41.994;21.458;2022-09-27T02:05:05;32.25;;;20.48;;
52316;SDS011;38725;41.994;21.458;2022-09-27T02:07:39;37.17;;;22.58;;
52316;SDS011;38725;41.994;21.458;2022-09-27T02:10:08;33.05;;;21.20;;
52316;SDS011;38725;41.994;21.458;2022-09-27T02:12:39;34.25;;;21.55;;
52316;SDS011;38725;41.994;21.458;2022-09-27T02:15:06;36.00;;;22.30;;
52316;SDS011;38725;41.994;21.458;2022-09-27T02:25:09;36.28;;;22.35;;
52316;SDS011;38725;41.994;21.458;2022-09-27T02:30:23;34.55;;;21.13;;
52316;SDS011;38725;41.994;21.458;2022-09-27T02:32:49;33.45;;;21.00;;
52316;SDS011;38725;41.994;21.458;2022-09-27T02:35:21;42.92;;;23.17;;
52316;SDS011;38725;41.994;21.458;2022-09-27T02:37:47;38.17;;;24.52;;
52316;SDS011;38725;41.994;21.458;2022-09-27T02:40:14;38.35;;;23.80;;
52316;SDS011;38725;41.994;21.458;2022-09-27T02:42:41;35.70;;;23.15;;
52316;SDS011;38725;41.994;21.458;2022-09-27T02:45:08;38.75;;;23.02;;
52316;SDS011;38725;41.994;21.458;2022-09-27T02:52:42;32.10;;;20.85;;
52316;SDS011;38725;41.994;21.458;2022-09-27T03:00:27;34.83;;;21.33;;
52316;SDS011;38725;41.994;21.458;2022-09-27T03:05:25;38.42;;;22.25;;
52316;SDS011;38725;41.994;21.458;2022-09-27T03:07:52;37.10;;;22.20;;
52316;SDS011;38725;41.994;21.458;2022-09-27T03:10:20;35.45;;;22.42;;
52316;SDS011;38725;41.994;21.458;2022-09-27T03:12:47;41.42;;;23.92;;
52316;SDS011;38725;41.994;21.458;2022-09-27T03:15:14;38.70;;;24.05;;
52316;SDS011;38725;41.994;21.458;2022-09-27T03:17:40;38.40;;;23.27;;
52316;SDS011;38725;41.994;21.458;2022-09-27T03:20:07;37.67;;;23.58;;
52316;SDS011;38725;41.994;21.458;2022-09-27T03:22:33;37.38;;;23.15;;
52316;SDS011;38725;41.994;21.458;2022-09-27T03:25:00;41.55;;;25.58;;
52316;SDS011;38725;41.994;21.458;2022-09-27T03:27:26;34.65;;;22.15;;
52316;SDS011;38725;41.994;21.458;2022-09-27T03:29:52;36.58;;;23.20;;
52316;SDS011;38725;41.994;21.458;2022-09-27T03:32:18;41.33;;;22.88;;
52316;SDS011;38725;41.994;21.458;2022-09-27T03:34:44;29.05;;;18.95;;
52316;SDS011;38725;41.994;21.458;2022-09-27T03:37:10;30.05;;;19.23;;
52316;SDS011;38725;41.994;21.458;2022-09-27T03:39:36;29.98;;;19.50;;
52316;SDS011;38725;41.994;21.458;2022-09-27T03:42:03;34.13;;;22.20;;
52316;SDS011;38725;41.994;21.458;2022-09-27T03:44:29;35.72;;;23.65;;
52316;SDS011;38725;41.994;21.458;2022-09-27T03:46:56;33.38;;;21.65;;
52316;SDS011;38725;41.994;21.458;2022-09-27T03:49:23;35.53;;;21.52;;
52316;SDS011;38725;41.994;21.458;2022-09-27T03:51:49;33.97;;;22.00;;
52316;SDS011;38725;41.994;21.458;2022-09-27T03:54:15;34.85;;;21.83;;
52316;SDS011;38725;41.994;21.458;2022-09-27T03:56:41;32.05;;;20.95;;
52316;SDS011;38725;41.994;21.458;2022-09-27T03:59:07;32.72;;;21.00;;
52316;SDS011;38725;41.994;21.458;2022-09-27T04:01:33;31.55;;;21.17;;
52316;SDS011;38725;41.994;21.458;2022-09-27T04:04:01;35.50;;;23.42;;
52316;SDS011;38725;41.994;21.458;2022-09-27T04:06:28;36.97;;;23.38;;
52316;SDS011;38725;41.994;21.458;2022-09-27T04:08:54;37.78;;;23.40;;
52316;SDS011;38725;41.994;21.458;2022-09-27T04:11:20;33.38;;;21.38;;
52316;SDS011;38725;41.994;21.458;2022-09-27T04:13:47;33.20;;;20.70;;
52316;SDS011;38725;41.994;21.458;2022-09-27T04:16:14;34.70;;;21.30;;
52316;SDS011;38725;41.994;21.458;2022-09-27T04:18:40;38.08;;;22.55;;
52316;SDS011;38725;41.994;21.458;2022-09-27T04:21:06;31.92;;;20.92;;
52316;SDS011;38725;41.994;21.458;2022-09-27T04:23:33;32.22;;;21.40;;
52316;SDS011;38725;41.994;21.458;2022-09-27T04:25:59;33.13;;;21.77;;
52316;SDS011;38725;41.994;21.458;2022-09-27T04:28:25;35.55;;;22.27;;
52316;SDS011;38725;41.994;21.458;2022-09-27T04:30:54;34.53;;;22.40;;
52316;SDS011;38725;41.994;21.458;2022-09-27T04:33:20;35.65;;;22.70;;
52316;SDS011;38725;41.994;21.458;2022-09-27T04:35:47;33.20;;;21.60;;
52316;SDS011;38725;41.994;21.458;2022-09-27T04:38:32;33.22;;;21.83;;
52316;SDS011;38725;41.994;21.458;2022-09-27T04:40:59;32.85;;;21.30;;
52316;SDS011;38725;41.994;21.458;2022-09-27T04:43:28;36.03;;;21.58;;
52316;SDS011;38725;41.994;21.458;2022-09-27T04:45:54;33.55;;;20.70;;
52316;SDS011;38725;41.994;21.458;2022-09-27T04:48:20;35.08;;;23.38;;
52316;SDS011;38725;41.994;21.458;2022-09-27T04:50:46;38.65;;;22.75;;
52316;SDS011;38725;41.994;21.458;2022-09-27T04:53:13;36.83;;;22.77;;
52316;SDS011;38725;41.994;21.458;2022-09-27T04:55:43;40.65;;;22.90;;
52316;SDS011;38725;41.994;21.458;2022-09-27T04:58:09;42.33;;;25.05;;
52316;SDS011;38725;41.994;21.458;2022-09-27T05:00:35;39.00;;;24.15;;
52316;SDS011;38725;41.994;21.458;2022-09-27T05:03:01;37.35;;;24.08;;
52316;SDS011;38725;41.994;21.458;2022-09-27T05:05:27;43.08;;;25.52;;
52316;SDS011;38725;41.994;21.458;2022-09-27T05:07:53;37.70;;;23.73;;
52316;SDS011;38725;41.994;21.458;2022-09-27T05:10:19;44.75;;;26.60;;
52316;SDS011;38725;41.994;21.458;2022-09-27T05:12:45;40.45;;;24.48;;
52316;SDS011;38725;41.994;21.458;2022-09-27T05:15:11;39.28;;;25.15;;
52316;SDS011;38725;41.994;21.458;2022-09-27T05:17:38;42.00;;;25.58;;
52316;SDS011;38725;41.994;21.458;2022-09-27T05:20:04;35.05;;;23.33;;
52316;SDS011;38725;41.994;21.458;2022-09-27T05:22:30;43.60;;;26.63;;
52316;SDS011;38725;41.994;21.458;2022-09-27T05:24:56;41.08;;;24.52;;
52316;SDS011;38725;41.994;21.458;2022-09-27T05:27:22;39.88;;;23.83;;
52316;SDS011;38725;41.994;21.458;2022-09-27T05:29:48;40.97;;;24.60;;
52316;SDS011;38725;41.994;21.458;2022-09-27T05:32:14;40.35;;;23.83;;
52316;SDS011;38725;41.994;21.458;2022-09-27T05:34:41;42.80;;;26.05;;
52316;SDS011;38725;41.994;21.458;2022-09-27T05:37:07;38.58;;;24.95;;
52316;SDS011;38725;41.994;21.458;2022-09-27T05:39:33;37.60;;;24.27;;
52316;SDS011;38725;41.994;21.458;2022-09-27T05:41:59;45.80;;;24.10;;
52316;SDS011;38725;41.994;21.458;2022-09-27T05:44:26;41.85;;;25.85;;
52316;SDS011;38725;41.994;21.458;2022-09-27T05:46:52;38.88;;;24.10;;
52316;SDS011;38725;41.994;21.458;2022-09-27T05:49:18;37.28;;;23.30;;
52316;SDS011;38725;41.994;21.458;2022-09-27T05:51:45;32.17;;;20.80;;
52316;SDS011;38725;41.994;21.458;2022-09-27T05:54:11;25.70;;;18.45;;
52316;SDS011;38725;41.994;21.458;2022-09-27T05:56:37;17.98;;;14.20;;
52316;SDS011;38725;41.994;21.458;2022-09-27T05:59:03;20.08;;;15.05;;
52316;SDS011;38725;41.994;21.458;2022-09-27T06:01:29;19.45;;;14.20;;
52316;SDS011;38725;41.994;21.458;2022-09-27T06:03:55;20.42;;;15.82;;
52316;SDS011;38725;41.994;21.458;2022-09-27T06:06:21;20.38;;;15.48;;
52316;SDS011;38725;41.994;21.458;2022-09-27T06:08:48;20.38;;;15.65;;
52316;SDS011;38725;41.994;21.458;2022-09-27T06:11:14;21.83;;;15.90;;
52316;SDS011;38725;41.994;21.458;2022-09-27T06:13:40;27.50;;;17.38;;
52316;SDS011;38725;41.994;21.458;2022-09-27T06:16:07;25.65;;;18.17;;
52316;SDS011;38725;41.994;21.458;2022-09-27T06:18:35;26.02;;;17.83;;
52316;SDS011;38725;41.994;21.458;2022-09-27T06:21:02;27.60;;;17.50;;
52316;SDS011;38725;41.994;21.458;2022-09-27T06:23:28;25.52;;;17.05;;
52316;SDS011;38725;41.994;21.458;2022-09-27T06:25:59;22.27;;;16.00;;
52316;SDS011;38725;41.994;21.458;2022-09-27T06:28:26;22.75;;;15.95;;
52316;SDS011;38725;41.994;21.458;2022-09-27T06:30:52;23.92;;;15.80;;
52316;SDS011;38725;41.994;21.458;2022-09-27T06:33:18;22.95;;;17.25;;
52316;SDS011;38725;41.994;21.458;2022-09-27T06:35:45;21.35;;;15.55;;
52316;SDS011;38725;41.994;21.458;2022-09-27T06:38:13;21.45;;;16.45;;
52316;SDS011;38725;41.994;21.458;2022-09-27T06:40:40;19.58;;;14.88;;
52316;SDS011;38725;41.994;21.458;2022-09-27T06:43:09;22.08;;;14.63;;
52316;SDS011;38725;41.994;21.458;2022-09-27T06:45:36;19.80;;;14.60;;
52316;SDS011;38725;41.994;21.458;2022-09-27T06:48:05;16.38;;;13.35;;
52316;SDS011;38725;41.994;21.458;2022-09-27T06:50:32;19.38;;;14.27;;
52316;SDS011;38725;41.994;21.458;2022-09-27T06:52:59;18.95;;;14.60;;
52316;SDS011;38725;41.994;21.458;2022-09-27T06:55:25;21.60;;;16.25;;
52316;SDS011;38725;41.994;21.458;2022-09-27T06:57:54;21.77;;;14.98;;
52316;SDS011;38725;41.994;21.458;2022-09-27T07:00:40;19.45;;;13.82;;
52316;SDS011;38725;41.994;21.458;2022-09-27T07:03:08;20.25;;;14.55;;
52316;SDS011;38725;41.994;21.458;2022-09-27T07:05:35;19.65;;;14.48;;
52316;SDS011;38725;41.994;21.458;2022-09-27T07:08:02;24.00;;;17.15;;
52316;SDS011;38725;41.994;21.458;2022-09-27T07:10:29;25.23;;;16.30;;
52316;SDS011;38725;41.994;21.458;2022-09-27T07:13:02;23.77;;;16.40;;
52316;SDS011;38725;41.994;21.458;2022-09-27T07:15:29;24.98;;;17.38;;
52316;SDS011;38725;41.994;21.458;2022-09-27T07:17:56;25.67;;;17.95;;
52316;SDS011;38725;41.994;21.458;2022-09-27T07:20:22;23.38;;;17.10;;
52316;SDS011;38725;41.994;21.458;2022-09-27T07:22:49;26.02;;;18.48;;
52316;SDS011;38725;41.994;21.458;2022-09-27T07:25:15;28.40;;;19.73;;
52316;SDS011;38725;41.994;21.458;2022-09-27T07:27:41;25.58;;;17.80;;
52316;SDS011;38725;41.994;21.458;2022-09-27T07:30:08;25.83;;;18.52;;
52316;SDS011;38725;41.994;21.458;2022-09-27T07:32:34;28.67;;;20.05;;
52316;SDS011;38725;41.994;21.458;2022-09-27T07:35:04;24.08;;;16.55;;
52316;SDS011;38725;41.994;21.458;2022-09-27T07:37:31;22.90;;;16.20;;
52316;SDS011;38725;41.994;21.458;2022-09-27T07:39:58;26.13;;;17.42;;
52316;SDS011;38725;41.994;21.458;2022-09-27T07:42:24;24.48;;;17.92;;
52316;SDS011;38725;41.994;21.458;2022-09-27T07:44:53;23.92;;;17.90;;
52316;SDS011;38725;41.994;21.458;2022-09-27T07:47:20;23.35;;;16.13;;
52316;SDS011;38725;41.994;21.458;2022-09-27T07:49:49;22.73;;;16.30;;
52316;SDS011;38725;41.994;21.458;2022-09-27T07:52:16;23.17;;;17.35;;
52316;SDS011;38725;41.994;21.458;2022-09-27T07:54:43;18.05;;;14.38;;
52316;SDS011;38725;41.994;21.458;2022-09-27T07:57:09;18.58;;;13.15;;
52316;SDS011;38725;41.994;21.458;2022-09-27T07:59:35;14.60;;;12.38;;
52316;SDS011;38725;41.994;21.458;2022-09-27T08:02:02;15.32;;;10.35;;
52316;SDS011;38725;41.994;21.458;2022-09-27T08:04:28;14.35;;;11.73;;
52316;SDS011;38725;41.994;21.458;2022-09-27T08:06:54;13.18;;;9.65;;
52316;SDS011;38725;41.994;21.458;2022-09-27T08:09:20;12.80;;;9.88;;
52316;SDS011;38725;41.994;21.458;2022-09-27T08:11:46;12.23;;;10.93;;
52316;SDS011;38725;41.994;21.458;2022-09-27T08:14:12;13.68;;;9.25;;
52316;SDS011;38725;41.994;21.458;2022-09-27T08:16:39;11.07;;;8.80;;
52316;SDS011;38725;41.994;21.458;2022-09-27T08:19:05;9.23;;;6.53;;
52316;SDS011;38725;41.994;21.458;2022-09-27T08:21:31;8.13;;;7.25;;
52316;SDS011;38725;41.994;21.458;2022-09-27T08:23:57;7.55;;;6.57;;
52316;SDS011;38725;41.994;21.458;2022-09-27T08:26:26;6.65;;;5.95;;
52316;SDS011;38725;41.994;21.458;2022-09-27T08:28:52;8.18;;;5.07;;
52316;SDS011;38725;41.994;21.458;2022-09-27T08:31:18;7.70;;;6.32;;
52316;SDS011;38725;41.994;21.458;2022-09-27T08:33:48;7.82;;;5.53;;
52316;SDS011;38725;41.994;21.458;2022-09-27T08:36:15;7.78;;;6.45;;
52316;SDS011;38725;41.994;21.458;2022-09-27T08:38:41;9.77;;;7.45;;
52316;SDS011;38725;41.994;21.458;2022-09-27T08:49:04;8.00;;;6.80;;
52316;SDS011;38725;41.994;21.458;2022-09-27T08:51:31;7.68;;;6.78;;
52316;SDS011;38725;41.994;21.458;2022-09-27T08:54:20;6.43;;;5.50;;
52316;SDS011;38725;41.994;21.458;2022-09-27T08:56:45;7.38;;;6.68;;
52316;SDS011;38725;41.994;21.458;2022-09-27T08:59:17;6.65;;;5.60;;
52316;SDS011;38725;41.994;21.458;2022-09-27T09:01:46;8.68;;;6.57;;
52316;SDS011;38725;41.994;21.458;2022-09-27T09:04:14;14.50;;;5.80;;
52316;SDS011;38725;41.994;21.458;2022-09-27T09:22:45;11.00;;;6.57;;
52316;SDS011;38725;41.994;21.458;2022-09-27T09:25:21;6.30;;;5.70;;
52316;SDS011;38725;41.994;21.458;2022-09-27T09:31:09;5.47;;;4.95;;
52316;SDS011;38725;41.994;21.458;2022-09-27T09:40:49;6.32;;;4.60;;
52316;SDS011;38725;41.994;21.458;2022-09-27T09:43:19;5.82;;;5.22;;
52316;SDS011;38725;41.994;21.458;2022-09-27T09:45:50;8.30;;;6.07;;
52316;SDS011;38725;41.994;21.458;2022-09-27T09:48:23;6.13;;;4.57;;
52316;SDS011;38725;41.994;21.458;2022-09-27T09:50:53;4.45;;;4.05;;
52316;SDS011;38725;41.994;21.458;2022-09-27T09:53:33;4.75;;;4.25;;
52316;SDS011;38725;41.994;21.458;2022-09-27T09:58:37;3.63;;;3.22;;
52316;SDS011;38725;41.994;21.458;2022-09-27T10:03:57;7.82;;;3.90;;
52316;SDS011;38725;41.994;21.458;2022-09-27T10:06:23;3.08;;;2.78;;
52316;SDS011;38725;41.994;21.458;2022-09-27T10:08:50;4.32;;;3.50;;
52316;SDS011;38725;41.994;21.458;2022-09-27T10:11:21;3.83;;;3.28;;
52316;SDS011;38725;41.994;21.458;2022-09-27T10:13:47;3.40;;;3.10;;
52316;SDS011;38725;41.994;21.458;2022-09-27T10:16:15;3.35;;;3.00;;
52316;SDS011;38725;41.994;21.458;2022-09-27T10:18:41;3.33;;;2.80;;
52316;SDS011;38725;41.994;21.458;2022-09-27T10:21:14;4.13;;;3.42;;
52316;SDS011;38725;41.994;21.458;2022-09-27T10:26:29;5.03;;;3.70;;
52316;SDS011;38725;41.994;21.458;2022-09-27T10:28:55;4.63;;;3.22;;
52316;SDS011;38725;41.994;21.458;2022-09-27T10:31:21;4.28;;;3.35;;
52316;SDS011;38725;41.994;21.458;2022-09-27T10:36:24;7.07;;;3.83;;
52316;SDS011;38725;41.994;21.458;2022-09-27T10:41:54;5.38;;;4.45;;
52316;SDS011;38725;41.994;21.458;2022-09-27T10:46:50;3.47;;;3.17;;
52316;SDS011;38725;41.994;21.458;2022-09-27T10:51:50;5.68;;;5.07;;
52316;SDS011;38725;41.994;21.458;2022-09-27T10:54:18;7.18;;;5.18;;
52316;SDS011;38725;41.994;21.458;2022-09-27T10:56:45;7.47;;;6.30;;
52316;SDS011;38725;41.994;21.458;2022-09-27T11:07:33;5.75;;;5.03;;
52316;SDS011;38725;41.994;21.458;2022-09-27T11:10:00;7.40;;;6.53;;
52316;SDS011;38725;41.994;21.458;2022-09-27T11:12:29;9.68;;;5.55;;
52316;SDS011;38725;41.994;21.458;2022-09-27T11:15:05;4.13;;;3.78;;
52316;SDS011;38725;41.994;21.458;2022-09-27T11:17:51;7.80;;;4.82;;
52316;SDS011;38725;41.994;21.458;2022-09-27T11:23:13;7.35;;;6.18;;
52316;SDS011;38725;41.994;21.458;2022-09-27T11:31:06;7.80;;;6.78;;
52316;SDS011;38725;41.994;21.458;2022-09-27T11:36:31;10.18;;;7.57;;
52316;SDS011;38725;41.994;21.458;2022-09-27T11:39:08;9.15;;;7.38;;
52316;SDS011;38725;41.994;21.458;2022-09-27T11:42:26;6.97;;;6.28;;
52316;SDS011;38725;41.994;21.458;2022-09-27T11:44:31;5.85;;;5.25;;
52316;SDS011;38725;41.994;21.458;2022-09-27T11:50:12;9.85;;;6.20;;
52316;SDS011;38725;41.994;21.458;2022-09-27T11:57:42;14.20;;;7.57;;
52316;SDS011;38725;41.994;21.458;2022-09-27T12:00:18;9.65;;;7.10;;
52316;SDS011;38725;41.994;21.458;2022-09-27T12:05:35;16.38;;;10.00;;
52316;SDS011;38725;41.994;21.458;2022-09-27T12:08:08;32.65;;;10.00;;
52316;SDS011;38725;41.994;21.458;2022-09-27T12:10:38;7.70;;;6.88;;
52316;SDS011;38725;41.994;21.458;2022-09-27T12:13:07;8.10;;;6.85;;
52316;SDS011;38725;41.994;21.458;2022-09-27T12:15:37;12.90;;;7.05;;
52316;SDS011;38725;41.994;21.458;2022-09-27T12:20:33;11.15;;;7.82;;
52316;SDS011;38725;41.994;21.458;2022-09-27T12:23:00;8.43;;;6.45;;
52316;SDS011;38725;41.994;21.458;2022-09-27T12:25:33;15.70;;;7.00;;
52316;SDS011;38725;41.994;21.458;2022-09-27T12:29:03;7.30;;;5.83;;
52316;SDS011;38725;41.994;21.458;2022-09-27T12:30:58;13.98;;;5.85;;
52316;SDS011;38725;41.994;21.458;2022-09-27T12:33:38;8.15;;;6.15;;
52316;SDS011;38725;41.994;21.458;2022-09-27T12:36:08;12.50;;;6.90;;
52316;SDS011;38725;41.994;21.458;2022-09-27T12:41:01;7.45;;;6.00;;
52316;SDS011;38725;41.994;21.458;2022-09-27T12:43:30;7.25;;;6.53;;
52316;SDS011;38725;41.994;21.458;2022-09-27T12:51:08;13.23;;;6.55;;
52316;SDS011;38725;41.994;21.458;2022-09-27T13:04:30;7.85;;;5.32;;
52316;SDS011;38725;41.994;21.458;2022-09-27T13:12:11;6.82;;;5.95;;
52316;SDS011;38725;41.994;21.458;2022-09-27T13:14:57;8.55;;;7.00;;
52316;SDS011;38725;41.994;21.458;2022-09-27T13:17:58;8.95;;;7.80;;
52316;SDS011;38725;41.994;21.458;2022-09-27T13:22:52;8.82;;;5.82;;
52316;SDS011;38725;41.994;21.458;2022-09-27T13:28:29;8.15;;;6.00;;
52316;SDS011;38725;41.994;21.458;2022-09-27T13:30:51;9.40;;;6.20;;
52316;SDS011;38725;41.994;21.458;2022-09-27T13:33:21;8.60;;;6.50;;
52316;SDS011;38725;41.994;21.458;2022-09-27T13:38:32;11.90;;;6.70;;
52316;SDS011;38725;41.994;21.458;2022-09-27T13:41:14;9.77;;;5.82;;
52316;SDS011;38725;41.994;21.458;2022-09-27T13:46:06;10.43;;;6.28;;
52316;SDS011;38725;41.994;21.458;2022-09-27T13:48:47;9.82;;;5.90;;
52316;SDS011;38725;41.994;21.458;2022-09-27T13:51:19;9.50;;;6.30;;
52316;SDS011;38725;41.994;21.458;2022-09-27T13:59:23;8.45;;;6.53;;
52316;SDS011;38725;41.994;21.458;2022-09-27T14:01:50;11.73;;;7.28;;
52316;SDS011;38725;41.994;21.458;2022-09-27T14:04:22;16.67;;;7.57;;
52316;SDS011;38725;41.994;21.458;2022-09-27T14:06:51;9.00;;;5.80;;
52316;SDS011;38725;41.994;21.458;2022-09-27T14:09:19;5.80;;;5.20;;
52316;SDS011;38725;41.994;21.458;2022-09-27T14:11:51;6.68;;;4.15;;
52316;SDS011;38725;41.994;21.458;2022-09-27T14:14:19;3.20;;;1.80;;
52316;SDS011;38725;41.994;21.458;2022-09-27T14:16:47;5.60;;;1.50;;
52316;SDS011;38725;41.994;21.458;2022-09-27T14:19:15;2.17;;;0.80;;
52316;SDS011;38725;41.994;21.458;2022-09-27T14:21:46;2.60;;;0.95;;
52316;SDS011;38725;41.994;21.458;2022-09-27T14:24:27;2.60;;;0.80;;
52316;SDS011;38725;41.994;21.458;2022-09-27T14:29:55;5.43;;;0.80;;
52316;SDS011;38725;41.994;21.458;2022-09-27T14:32:25;0.60;;;0.28;;
52316;SDS011;38725;41.994;21.458;2022-09-27T14:37:56;0.85;;;0.75;;
52316;SDS011;38725;41.994;21.458;2022-09-27T14:40:23;2.13;;;0.70;;
52316;SDS011;38725;41.994;21.458;2022-09-27T14:42:52;0.70;;;0.40;;
52316;SDS011;38725;41.994;21.458;2022-09-27T14:47:46;2.00;;;0.50;;
52316;SDS011;38725;41.994;21.458;2022-09-27T14:50:19;1.10;;;0.50;;
52316;SDS011;38725;41.994;21.458;2022-09-27T14:52:45;2.35;;;0.57;;
52316;SDS011;38725;41.994;21.458;2022-09-27T14:55:17;1.00;;;0.40;;
52316;SDS011;38725;41.994;21.458;2022-09-27T14:57:45;0.85;;;0.50;;
52316;SDS011;38725;41.994;21.458;2022-09-27T15:02:41;2.28;;;0.50;;
52316;SDS011;38725;41.994;21.458;2022-09-27T15:05:15;2.22;;;0.50;;
52316;SDS011;38725;41.994;21.458;2022-09-27T15:07:43;2.50;;;0.45;;
52316;SDS011;38725;41.994;21.458;2022-09-27T15:10:16;2.03;;;0.50;;
52316;SDS011;38725;41.994;21.458;2022-09-27T15:12:43;0.82;;;0.40;;
52316;SDS011;38725;41.994;21.458;2022-09-27T15:15:14;4.10;;;0.40;;
52316;SDS011;38725;41.994;21.458;2022-09-27T15:17:43;2.95;;;0.70;;
52316;SDS011;38725;41.994;21.458;2022-09-27T15:20:23;1.08;;;0.50;;
52316;SDS011;38725;41.994;21.458;2022-09-27T15:22:52;1.15;;;0.50;;
52316;SDS011;38725;41.994;21.458;2022-09-27T15:27:56;0.70;;;0.50;;
52316;SDS011;38725;41.994;21.458;2022-09-27T15:30:24;2.22;;;0.73;;
52316;SDS011;38725;41.994;21.458;2022-09-27T15:32:54;1.13;;;0.60;;
52316;SDS011;38725;41.994;21.458;2022-09-27T15:35:23;0.82;;;0.52;;
52316;SDS011;38725;41.994;21.458;2022-09-27T15:37:50;0.98;;;0.60;;
52316;SDS011;38725;41.994;21.458;2022-09-27T15:42:56;1.38;;;0.60;;
52316;SDS011;38725;41.994;21.458;2022-09-27T15:45:29;2.20;;;0.50;;
52316;SDS011;38725;41.994;21.458;2022-09-27T15:47:55;0.45;;;0.40;;
52316;SDS011;38725;41.994;21.458;2022-09-27T15:52:53;2.15;;;0.70;;
52316;SDS011;38725;41.994;21.458;2022-09-27T15:55:22;1.20;;;0.60;;
52316;SDS011;38725;41.994;21.458;2022-09-27T15:57:59;0.60;;;0.55;;
52316;SDS011;38725;41.994;21.458;2022-09-27T16:00:26;1.27;;;0.40;;
52316;SDS011;38725;41.994;21.458;2022-09-27T16:02:53;1.52;;;0.50;;
52316;SDS011;38725;41.994;21.458;2022-09-27T16:05:19;1.02;;;0.60;;
52316;SDS011;38725;41.994;21.458;2022-09-27T16:07:47;0.90;;;0.50;;
52316;SDS011;38725;41.994;21.458;2022-09-27T16:10:14;1.15;;;0.50;;
52316;SDS011;38725;41.994;21.458;2022-09-27T16:12:41;2.60;;;0.70;;
52316;SDS011;38725;41.994;21.458;2022-09-27T16:15:09;1.85;;;0.70;;
52316;SDS011;38725;41.994;21.458;2022-09-27T16:17:35;3.15;;;1.02;;
52316;SDS011;38725;41.994;21.458;2022-09-27T16:20:03;0.63;;;0.45;;
52316;SDS011;38725;41.994;21.458;2022-09-27T16:22:29;0.90;;;0.55;;
52316;SDS011;38725;41.994;21.458;2022-09-27T16:24:55;1.85;;;0.73;;
52316;SDS011;38725;41.994;21.458;2022-09-27T16:27:22;1.40;;;0.40;;
52316;SDS011;38725;41.994;21.458;2022-09-27T16:29:48;1.48;;;0.47;;
52316;SDS011;38725;41.994;21.458;2022-09-27T16:32:14;1.60;;;0.57;;
52316;SDS011;38725;41.994;21.458;2022-09-27T16:34:40;1.02;;;0.60;;
52316;SDS011;38725;41.994;21.458;2022-09-27T16:37:06;1.40;;;0.63;;
52316;SDS011;38725;41.994;21.458;2022-09-27T16:39:34;1.77;;;0.90;;
52316;SDS011;38725;41.994;21.458;2022-09-27T16:42:00;3.30;;;1.63;;
52316;SDS011;38725;41.994;21.458;2022-09-27T16:44:29;4.40;;;1.27;;
52316;SDS011;38725;41.994;21.458;2022-09-27T16:46:59;4.28;;;2.03;;
52316;SDS011;38725;41.994;21.458;2022-09-27T16:49:25;2.63;;;1.60;;
52316;SDS011;38725;41.994;21.458;2022-09-27T16:52:10;3.35;;;1.40;;
52316;SDS011;38725;41.994;21.458;2022-09-27T16:54:36;5.30;;;1.60;;
52316;SDS011;38725;41.994;21.458;2022-09-27T16:57:02;3.63;;;1.65;;
52316;SDS011;38725;41.994;21.458;2022-09-27T16:59:28;6.00;;;1.88;;
52316;SDS011;38725;41.994;21.458;2022-09-27T17:01:54;3.78;;;2.00;;
52316;SDS011;38725;41.994;21.458;2022-09-27T17:04:21;5.78;;;1.80;;
52316;SDS011;38725;41.994;21.458;2022-09-27T17:06:47;6.15;;;2.22;;
52316;SDS011;38725;41.994;21.458;2022-09-27T17:09:13;6.10;;;2.55;;
52316;SDS011;38725;41.994;21.458;2022-09-27T17:11:39;6.45;;;2.20;;
52316;SDS011;38725;41.994;21.458;2022-09-27T17:14:05;6.25;;;2.15;;
52316;SDS011;38725;41.994;21.458;2022-09-27T17:16:32;8.65;;;2.80;;
52316;SDS011;38725;41.994;21.458;2022-09-27T17:18:58;8.10;;;2.70;;
52316;SDS011;38725;41.994;21.458;2022-09-27T17:21:24;4.55;;;2.47;;
52316;SDS011;38725;41.994;21.458;2022-09-27T17:23:50;6.00;;;2.53;;
52316;SDS011;38725;41.994;21.458;2022-09-27T17:26:18;6.82;;;3.05;;
52316;SDS011;38725;41.994;21.458;2022-09-27T17:28:45;4.57;;;3.00;;
52316;SDS011;38725;41.994;21.458;2022-09-27T17:31:13;3.95;;;2.58;;
52316;SDS011;38725;41.994;21.458;2022-09-27T17:33:43;3.85;;;2.40;;
52316;SDS011;38725;41.994;21.458;2022-09-27T17:36:11;5.25;;;2.85;;
52316;SDS011;38725;41.994;21.458;2022-09-27T17:38:38;5.28;;;2.75;;
52316;SDS011;38725;41.994;21.458;2022-09-27T17:41:05;14.32;;;3.33;;
52316;SDS011;38725;41.994;21.458;2022-09-27T17:43:34;8.55;;;3.72;;